East London, South Africa
Current Conditions -  °F | °C
As of 8:00 AM on Saturday 25 Oct 2014 (Local Time) from FAUT Reporting Station
Drizzle Drizzle  
Wind Chill: 61°   Ceiling: 1500
Heat Index: 61°   Visibility: 4mi
Dew Point: 57°   Wind: 6mph
Humidity: 88%   Direction: 120°ESE
Pressure: 30.21"   Gusts: NA
Location:  32.97°S, 27.87°E
Report Text: FAUT 250600Z 12005KT 7000 -DZ BKN015 16/14 Q1023
Loading
Personal Weather Stations






























Interactive Weather Map
Tropical Storm Tracking
New forecast layout! Learn more

10-Day Weather Forecast

Advertisements
Track Severe Weather on mobile